createdAt,value
2018-01-13T00:00:14.871Z,102727.82
2018-01-13T00:02:42.516Z,102731.32
2018-01-13T00:05:10.502Z,102730.64
2018-01-13T00:07:38.188Z,102732.21
2018-01-13T00:10:05.778Z,102727.80
2018-01-13T00:12:33.459Z,102726.69
2018-01-13T00:15:01.363Z,102727.08
2018-01-13T00:17:28.983Z,102731.92
2018-01-13T00:19:56.674Z,102723.94
2018-01-13T00:22:24.317Z,102728.86
2018-01-13T00:24:51.964Z,102720.24
2018-01-13T00:27:19.620Z,102732.53
2018-01-13T00:29:47.541Z,102722.49
2018-01-13T00:32:15.185Z,102724.41
2018-01-13T00:34:43.081Z,102730.40
2018-01-13T00:37:10.685Z,102731.78
2018-01-13T00:39:38.356Z,102736.06
2018-01-13T00:42:06.003Z,102737.45
2018-01-13T00:44:33.663Z,102734.89
2018-01-13T00:47:01.272Z,102737.91
2018-01-13T00:49:28.884Z,102743.90
2018-01-13T00:51:56.546Z,102745.25
2018-01-13T00:54:24.149Z,102748.60
2018-01-13T00:56:51.901Z,102748.84
2018-01-13T00:59:19.548Z,102744.83
2018-01-13T01:01:47.577Z,102754.20
2018-01-13T01:04:15.257Z,102749.48
2018-01-13T01:06:42.862Z,102753.73
2018-01-13T01:09:10.765Z,102756.94
2018-01-13T01:11:38.372Z,102753.55
2018-01-13T01:14:06.554Z,102757.67
2018-01-13T01:16:34.221Z,102757.22
2018-01-13T01:19:01.849Z,102757.11
2018-01-13T01:21:29.479Z,102757.72
2018-01-13T01:23:57.101Z,102757.90
2018-01-13T01:26:24.717Z,102761.11
2018-01-13T01:28:52.389Z,102757.61
2018-01-13T01:31:20.023Z,102751.17
2018-01-13T01:33:47.708Z,102752.16
2018-01-13T01:36:15.321Z,102750.84
2018-01-13T01:38:42.947Z,102760.53
2018-01-13T01:41:10.597Z,102759.58
2018-01-13T01:43:38.196Z,102755.91
2018-01-13T01:46:05.854Z,102759.78
2018-01-13T01:48:33.471Z,102760.25
2018-01-13T01:51:01.127Z,102761.53
2018-01-13T01:53:28.794Z,102762.75
2018-01-13T01:55:56.380Z,102764.13
2018-01-13T01:58:24.059Z,102768.27
2018-01-13T02:00:51.685Z,102765.20
2018-01-13T02:03:19.294Z,102764.34
2018-01-13T02:05:46.917Z,102766.34
2018-01-13T02:08:14.557Z,102760.57
2018-01-13T02:10:42.217Z,102753.41
2018-01-13T02:13:09.820Z,102757.47
2018-01-13T02:15:37.461Z,102756.08
2018-01-13T02:18:05.101Z,102751.31
2018-01-13T02:20:32.688Z,102750.67
2018-01-13T02:23:00.309Z,102747.81
2018-01-13T02:25:27.901Z,102754.16
2018-01-13T02:27:55.543Z,102755.97
2018-01-13T02:30:23.255Z,102752.41
2018-01-13T02:32:50.888Z,102751.25
2018-01-13T02:35:18.543Z,102754.39
2018-01-13T02:37:46.173Z,102751.41
2018-01-13T02:40:13.751Z,102748.02
2018-01-13T02:42:41.392Z,102739.51
2018-01-13T02:45:09.000Z,102755.28
2018-01-13T02:47:36.635Z,102750.09
2018-01-13T02:50:04.232Z,102752.19
2018-01-13T02:52:31.923Z,102751.01
2018-01-13T02:54:59.781Z,102751.94
2018-01-13T02:57:27.390Z,102756.27
2018-01-13T02:59:55.306Z,102760.86
2018-01-13T03:02:22.912Z,102763.03
2018-01-13T03:04:50.552Z,102760.95
2018-01-13T03:07:18.213Z,102759.05
2018-01-13T03:09:45.939Z,102757.55
2018-01-13T03:12:13.926Z,102749.97
2018-01-13T03:14:41.535Z,102741.84
2018-01-13T03:17:09.147Z,102746.37
2018-01-13T03:19:36.851Z,102744.63
2018-01-13T03:22:04.444Z,102751.36
2018-01-13T03:24:32.357Z,102749.20
2018-01-13T03:27:00.215Z,102751.19
2018-01-13T03:29:27.820Z,102758.28
2018-01-13T03:31:55.450Z,102756.29
2018-01-13T03:34:23.051Z,102754.97
2018-01-13T03:36:50.763Z,102751.91
2018-01-13T03:39:18.370Z,102750.62
2018-01-13T03:41:46.031Z,102756.44
2018-01-13T03:44:13.660Z,102746.17
2018-01-13T03:46:41.252Z,102741.86
2018-01-13T03:49:08.911Z,102743.14
2018-01-13T03:51:36.532Z,102742.63
2018-01-13T03:54:04.500Z,102739.95
2018-01-13T03:56:32.124Z,102742.09
2018-01-13T03:58:59.745Z,102744.77
2018-01-13T04:01:27.691Z,102748.63
2018-01-13T04:03:55.371Z,102748.66
2018-01-13T04:06:23.015Z,102744.03
2018-01-13T04:08:50.668Z,102747.48
2018-01-13T04:11:18.273Z,102749.99
2018-01-13T04:13:45.908Z,102745.41
2018-01-13T04:16:13.545Z,102746.48
2018-01-13T04:18:41.154Z,102747.05
2018-01-13T04:21:08.814Z,102740.09
2018-01-13T04:23:36.424Z,102736.33
2018-01-13T04:26:04.108Z,102734.31
2018-01-13T04:28:31.745Z,102738.34
2018-01-13T04:30:59.409Z,102737.13
2018-01-13T04:33:27.023Z,102737.02
2018-01-13T04:35:54.887Z,102735.39
2018-01-13T04:38:22.553Z,102739.20
2018-01-13T04:40:50.161Z,102738.68
2018-01-13T04:43:17.787Z,102737.40
2018-01-13T04:45:45.425Z,102738.08
2018-01-13T04:48:13.040Z,102737.36
2018-01-13T04:50:40.679Z,102737.66
2018-01-13T04:53:08.309Z,102739.13
2018-01-13T04:55:35.960Z,102737.25
2018-01-13T04:58:03.844Z,102747.02
2018-01-13T05:00:31.442Z,102737.69
2018-01-13T05:02:59.080Z,102745.67
2018-01-13T05:05:26.714Z,102742.22
2018-01-13T05:07:55.353Z,102748.55
2018-01-13T05:10:22.932Z,102744.63
2018-01-13T05:12:50.566Z,102753.06
2018-01-13T05:15:18.223Z,102746.01
2018-01-13T05:17:45.838Z,102752.59
2018-01-13T05:20:13.508Z,102756.06
2018-01-13T05:22:41.116Z,102749.64
2018-01-13T05:25:08.722Z,102751.87
2018-01-13T05:27:36.378Z,102753.05
2018-01-13T05:30:03.989Z,102746.41
2018-01-13T05:32:31.622Z,102753.25
2018-01-13T05:34:59.211Z,102756.92
2018-01-13T05:37:26.805Z,102748.35
2018-01-13T05:39:54.761Z,102757.01
2018-01-13T05:42:22.705Z,102761.34
2018-01-13T05:44:50.352Z,102759.57
2018-01-13T05:47:17.956Z,102768.71
2018-01-13T05:49:45.585Z,102765.94
2018-01-13T05:52:13.233Z,102765.48
2018-01-13T05:54:40.823Z,102766.61
2018-01-13T05:57:08.461Z,102762.13
2018-01-13T05:59:36.108Z,102764.69
2018-01-13T06:02:03.727Z,102768.25
2018-01-13T06:04:31.373Z,102760.86
2018-01-13T06:06:59.007Z,102764.64
2018-01-13T06:09:26.651Z,102760.69
2018-01-13T06:11:54.272Z,102755.67
2018-01-13T06:14:21.892Z,102758.17
2018-01-13T06:16:49.551Z,102763.41
2018-01-13T06:19:17.443Z,102761.34
2018-01-13T06:21:45.083Z,102758.53
2018-01-13T06:24:12.737Z,102760.34
2018-01-13T06:26:40.465Z,102755.94
2018-01-13T06:29:08.137Z,102760.48
2018-01-13T06:31:36.092Z,102760.30
2018-01-13T06:34:03.903Z,102766.25
2018-01-13T06:36:31.541Z,102764.34
2018-01-13T06:38:59.138Z,102755.95
2018-01-13T06:41:26.801Z,102760.23
2018-01-13T06:43:54.443Z,102758.06
2018-01-13T06:46:22.111Z,102757.14
2018-01-13T06:48:49.743Z,102762.16
2018-01-13T06:51:17.374Z,102759.52
2018-01-13T06:53:45.009Z,102765.18
2018-01-13T06:56:12.641Z,102765.42
2018-01-13T06:58:40.410Z,102767.55
2018-01-13T07:01:08.090Z,102774.52
2018-01-13T07:03:35.721Z,102774.12
2018-01-13T07:06:04.075Z,102785.09
2018-01-13T07:08:32.148Z,102777.20
2018-01-13T07:10:59.810Z,102777.56
2018-01-13T07:13:27.458Z,102780.35
2018-01-13T07:15:55.122Z,102786.84
2018-01-13T07:18:22.726Z,102788.77
2018-01-13T07:20:50.387Z,102781.96
2018-01-13T07:23:18.051Z,102784.27
2018-01-13T07:25:45.938Z,102782.52
2018-01-13T07:28:13.571Z,102781.55
2018-01-13T07:30:41.179Z,102779.70
2018-01-13T07:33:08.829Z,102777.33
2018-01-13T07:35:36.474Z,102782.03
2018-01-13T07:38:05.550Z,102781.70
2018-01-13T07:40:35.141Z,102782.53
2018-01-13T07:43:03.933Z,102789.08
2018-01-13T07:45:31.608Z,102785.42
2018-01-13T07:47:59.209Z,102781.05
2018-01-13T07:50:27.033Z,102781.12
2018-01-13T07:52:54.653Z,102775.19
2018-01-13T07:55:22.261Z,102778.05
2018-01-13T07:57:49.913Z,102768.33
2018-01-13T08:00:17.517Z,102774.69
2018-01-13T08:02:45.345Z,102780.26
2018-01-13T08:05:12.931Z,102775.27
2018-01-13T08:07:40.560Z,102783.75
2018-01-13T08:10:08.221Z,102782.59
2018-01-13T08:12:36.093Z,102786.84
2018-01-13T08:15:03.746Z,102784.87
2018-01-13T08:17:31.410Z,102786.52
2018-01-13T08:19:59.124Z,102788.23
2018-01-13T08:22:26.771Z,102790.36
2018-01-13T08:24:54.506Z,102790.86
2018-01-13T08:27:22.165Z,102799.67
2018-01-13T08:29:50.045Z,102803.11
2018-01-13T08:32:17.732Z,102808.53
2018-01-13T08:34:45.407Z,102801.82
2018-01-13T08:37:13.415Z,102810.34
2018-01-13T08:39:41.190Z,102805.94
2018-01-13T08:42:08.858Z,102819.27
2018-01-13T08:44:36.435Z,102806.86
2018-01-13T08:47:04.066Z,102811.89
2018-01-13T08:49:31.644Z,102811.59
2018-01-13T08:51:59.626Z,102815.12
2018-01-13T08:54:27.242Z,102809.78
2018-01-13T08:56:54.824Z,102812.81
2018-01-13T08:59:23.179Z,102809.30
2018-01-13T09:01:55.188Z,102821.34
2018-01-13T09:04:22.843Z,102815.05
2018-01-13T09:06:50.481Z,102816.80
2018-01-13T09:09:18.143Z,102815.11
2018-01-13T09:11:47.278Z,102821.59
2018-01-13T09:14:14.902Z,102815.31
2018-01-13T09:16:42.651Z,102823.95
2018-01-13T09:19:10.369Z,102823.95
2018-01-13T09:21:37.962Z,102823.43
2018-01-13T09:24:05.647Z,102825.72
2018-01-13T09:26:33.296Z,102826.25
2018-01-13T09:29:00.940Z,102834.13
2018-01-13T09:31:28.557Z,102829.30
2018-01-13T09:33:56.184Z,102825.98
2018-01-13T09:36:23.853Z,102822.26
2018-01-13T09:38:51.496Z,102824.95
2018-01-13T09:41:19.199Z,102828.22
2018-01-13T09:43:46.809Z,102826.05
2018-01-13T09:46:14.425Z,102826.84
2018-01-13T09:48:42.168Z,102817.97
2018-01-13T09:51:09.793Z,102823.45
2018-01-13T09:53:37.455Z,102825.16
2018-01-13T09:56:05.069Z,102828.73
2018-01-13T09:58:32.659Z,102829.59
2018-01-13T10:01:00.279Z,102828.97
2018-01-13T10:03:28.215Z,102828.82
2018-01-13T10:05:56.173Z,102840.59
2018-01-13T10:08:23.833Z,102820.01
2018-01-13T10:10:51.426Z,102830.20
2018-01-13T10:13:19.670Z,102824.01
2018-01-13T10:15:47.269Z,102820.52
2018-01-13T10:18:15.004Z,102828.73
2018-01-13T10:20:42.648Z,102837.12
2018-01-13T10:23:10.257Z,102827.33
2018-01-13T10:25:37.906Z,102836.55
2018-01-13T10:28:05.533Z,102823.84
2018-01-13T10:30:33.159Z,102823.73
2018-01-13T10:33:00.872Z,102830.78
2018-01-13T10:35:28.520Z,102825.23
2018-01-13T10:37:56.174Z,102816.08
2018-01-13T10:40:23.781Z,102819.27
2018-01-13T10:42:51.461Z,102822.81
2018-01-13T10:45:20.805Z,102825.48
2018-01-13T10:47:48.916Z,102821.00
2018-01-13T10:50:16.566Z,102819.80
2018-01-13T10:52:44.439Z,102813.48
2018-01-13T10:55:12.100Z,102816.44
2018-01-13T10:57:40.237Z,102822.49
2018-01-13T11:00:08.138Z,102812.22
2018-01-13T11:02:36.002Z,102807.61
2018-01-13T11:05:03.737Z,102813.25
2018-01-13T11:07:31.387Z,102808.60
2018-01-13T11:09:59.120Z,102808.50
2018-01-13T11:12:26.785Z,102800.31
2018-01-13T11:14:54.421Z,102807.09
2018-01-13T11:17:22.217Z,102802.22
2018-01-13T11:19:50.146Z,102806.89
2018-01-13T11:22:19.344Z,102801.76
2018-01-13T11:24:46.968Z,102797.55
2018-01-13T11:27:14.930Z,102795.27
2018-01-13T11:29:42.569Z,102795.63
2018-01-13T11:32:10.236Z,102792.64
2018-01-13T11:34:37.838Z,102790.36
2018-01-13T11:37:05.757Z,102792.30
2018-01-13T11:39:33.437Z,102789.70
2018-01-13T11:42:01.044Z,102789.67
2018-01-13T11:44:28.711Z,102785.30
2018-01-13T11:46:56.289Z,102780.39
2018-01-13T11:49:28.020Z,102782.13
2018-01-13T11:51:56.600Z,102786.47
2018-01-13T11:54:24.608Z,102783.88
2018-01-13T11:56:52.446Z,102784.38
2018-01-13T11:59:21.278Z,102785.30
2018-01-13T12:01:49.248Z,102787.70
2018-01-13T12:04:16.994Z,102788.26
2018-01-13T12:06:44.599Z,102785.76
2018-01-13T12:09:12.235Z,102791.55
2018-01-13T12:11:39.844Z,102788.06
2018-01-13T12:14:07.454Z,102786.38
2018-01-13T12:16:35.134Z,102787.57
2018-01-13T12:19:02.779Z,102780.09
2018-01-13T12:21:30.440Z,102778.72
2018-01-13T12:23:58.130Z,102774.06
2018-01-13T12:26:26.183Z,102775.19
2018-01-13T12:28:53.934Z,102777.75
2018-01-13T12:31:21.738Z,102771.37
2018-01-13T12:33:49.522Z,102768.48
2018-01-13T12:36:17.167Z,102767.12
2018-01-13T12:38:44.760Z,102765.42
2018-01-13T12:41:12.437Z,102765.33
2018-01-13T12:43:40.060Z,102764.80
2018-01-13T12:46:10.741Z,102762.09
2018-01-13T12:48:38.445Z,102760.39
2018-01-13T12:51:06.051Z,102765.42
2018-01-13T12:53:33.686Z,102759.37
2018-01-13T12:56:01.291Z,102754.13
2018-01-13T12:58:29.281Z,102750.81
2018-01-13T13:00:56.975Z,102742.42
2018-01-13T13:03:24.688Z,102743.61
2018-01-13T13:05:52.331Z,102738.97
2018-01-13T13:08:19.916Z,102736.20
2018-01-13T13:10:47.555Z,102734.48
2018-01-13T13:13:15.196Z,102738.77
2018-01-13T13:15:42.855Z,102736.00
2018-01-13T13:18:10.481Z,102743.04
2018-01-13T13:20:38.401Z,102729.39
2018-01-13T13:23:06.069Z,102724.72
2018-01-13T13:25:33.770Z,102732.38
2018-01-13T13:28:01.381Z,102723.83
2018-01-13T13:30:29.045Z,102725.50
2018-01-13T13:32:57.054Z,102725.83
2018-01-13T13:35:25.082Z,102712.72
2018-01-13T13:37:53.306Z,102729.25
2018-01-13T13:40:21.241Z,102723.44
2018-01-13T13:42:48.998Z,102714.41
2018-01-13T13:45:16.675Z,102706.91
2018-01-13T13:47:44.357Z,102705.39
2018-01-13T13:50:11.983Z,102709.56
2018-01-13T13:52:39.617Z,102702.89
2018-01-13T13:55:07.415Z,102701.41
2018-01-13T13:57:35.144Z,102702.86
2018-01-13T14:00:03.127Z,102703.20
2018-01-13T14:02:30.769Z,102707.13
2018-01-13T14:04:58.743Z,102710.46
2018-01-13T14:07:26.405Z,102706.19
2018-01-13T14:09:54.107Z,102709.48
2018-01-13T14:12:21.848Z,102703.07
2018-01-13T14:14:49.466Z,102700.08
2018-01-13T14:17:17.074Z,102701.02
2018-01-13T14:19:44.941Z,102697.88
2018-01-13T14:22:13.007Z,102701.20
2018-01-13T14:24:40.692Z,102700.59
2018-01-13T14:27:08.326Z,102693.94
2018-01-13T14:29:36.823Z,102698.76
2018-01-13T14:32:04.492Z,102692.27
2018-01-13T14:34:32.141Z,102694.95
2018-01-13T14:36:59.816Z,102685.91
2018-01-13T14:39:27.446Z,102698.23
2018-01-13T14:41:55.053Z,102683.03
2018-01-13T14:44:22.983Z,102681.56
2018-01-13T14:46:50.632Z,102675.94
2018-01-13T14:49:18.622Z,102688.00
2018-01-13T14:51:46.270Z,102684.84
2018-01-13T14:54:13.922Z,102686.16
2018-01-13T14:56:41.536Z,102686.32
2018-01-13T14:59:09.485Z,102684.99
2018-01-13T15:01:37.229Z,102686.15
2018-01-13T15:04:04.885Z,102692.95
2018-01-13T15:06:32.613Z,102690.77
2018-01-13T15:09:00.310Z,102691.29
2018-01-13T15:11:27.970Z,102691.45
2018-01-13T15:13:55.800Z,102695.47
2018-01-13T15:16:23.492Z,102698.70
2018-01-13T15:18:51.155Z,102693.63
2018-01-13T15:21:19.343Z,102695.96
2018-01-13T15:23:46.989Z,102694.08
2018-01-13T15:26:14.737Z,102704.12
2018-01-13T15:28:42.414Z,102703.42
2018-01-13T15:31:10.078Z,102708.50
2018-01-13T15:33:37.732Z,102702.88
2018-01-13T15:36:05.336Z,102704.78
2018-01-13T15:38:33.501Z,102707.80
2018-01-13T15:41:01.492Z,102710.34
2018-01-13T15:43:29.238Z,102710.28
2018-01-13T15:45:56.969Z,102719.23
2018-01-13T15:48:24.572Z,102715.77
2018-01-13T15:50:52.212Z,102724.92
2018-01-13T15:53:19.850Z,102717.64
2018-01-13T15:55:47.511Z,102722.45
2018-01-13T15:58:15.113Z,102720.20
2018-01-13T16:00:42.730Z,102731.33
2018-01-13T16:03:10.440Z,102723.63
2018-01-13T16:05:38.183Z,102724.32
2018-01-13T16:08:05.857Z,102721.81
2018-01-13T16:10:33.878Z,102726.36
2018-01-13T16:13:01.585Z,102713.83
2018-01-13T16:15:29.261Z,102728.20
2018-01-13T16:17:56.876Z,102720.67
2018-01-13T16:20:24.551Z,102719.75
2018-01-13T16:22:52.207Z,102723.05
2018-01-13T16:25:19.815Z,102726.69
2018-01-13T16:27:47.477Z,102718.59
2018-01-13T16:30:15.108Z,102719.35
2018-01-13T16:32:42.763Z,102714.84
2018-01-13T16:35:10.392Z,102713.63
2018-01-13T16:37:37.980Z,102718.66
2018-01-13T16:40:05.619Z,102710.95
2018-01-13T16:42:33.204Z,102725.61
2018-01-13T16:45:00.860Z,102723.34
2018-01-13T16:47:28.487Z,102725.15
2018-01-13T16:49:56.098Z,102724.39
2018-01-13T16:52:23.783Z,102718.86
2018-01-13T16:54:51.405Z,102727.22
2018-01-13T16:57:19.047Z,102725.46
2018-01-13T16:59:46.649Z,102722.83
2018-01-13T17:02:14.262Z,102724.70
2018-01-13T17:04:41.896Z,102719.45
2018-01-13T17:07:09.556Z,102729.91
2018-01-13T17:09:37.221Z,102724.73
2018-01-13T17:12:04.872Z,102727.76
2018-01-13T17:14:32.484Z,102730.53
2018-01-13T17:17:00.137Z,102726.06
2018-01-13T17:19:28.022Z,102719.11
2018-01-13T17:21:55.724Z,102705.63
2018-01-13T17:24:23.759Z,102710.59
2018-01-13T17:26:52.601Z,102707.22
2018-01-13T17:29:21.467Z,102709.72
2018-01-13T17:31:49.116Z,102708.98
2018-01-13T17:34:16.760Z,102715.63
2018-01-13T17:36:44.402Z,102719.45
2018-01-13T17:39:12.076Z,102715.20
2018-01-13T17:41:39.762Z,102711.03
2018-01-13T17:44:07.428Z,102714.54
2018-01-13T17:46:35.071Z,102722.97
2018-01-13T17:49:02.691Z,102718.23
2018-01-13T17:51:30.385Z,102721.91
2018-01-13T17:53:58.099Z,102723.86
2018-01-13T17:56:26.036Z,102724.19
2018-01-13T17:58:53.714Z,102728.41
2018-01-13T18:01:21.329Z,102725.05
2018-01-13T18:03:49.844Z,102723.93
2018-01-13T18:06:17.468Z,102744.92
2018-01-13T18:08:45.072Z,102734.27
2018-01-13T18:11:12.769Z,102733.28
2018-01-13T18:13:41.170Z,102725.52
2018-01-13T18:16:08.760Z,102729.48
2018-01-13T18:18:36.420Z,102732.09
2018-01-13T18:21:04.411Z,102738.17
2018-01-13T18:23:32.044Z,102731.77
2018-01-13T18:26:00.048Z,102738.80
2018-01-13T18:28:27.681Z,102738.87
2018-01-13T18:30:55.312Z,102738.73
2018-01-13T18:33:22.999Z,102725.94
2018-01-13T18:35:50.663Z,102727.94
2018-01-13T18:38:18.266Z,102723.30
2018-01-13T18:40:45.901Z,102724.22
2018-01-13T18:43:13.651Z,102728.01
2018-01-13T18:45:41.288Z,102733.00
2018-01-13T18:48:08.927Z,102733.38
2018-01-13T18:50:36.769Z,102730.34
2018-01-13T18:53:04.380Z,102728.07
2018-01-13T18:55:33.012Z,102726.03
2018-01-13T18:58:00.620Z,102718.89
2018-01-13T19:00:28.301Z,102718.77
2018-01-13T19:02:56.042Z,102716.80
2018-01-13T19:05:23.662Z,102714.13
2018-01-13T19:07:51.866Z,102716.66
2018-01-13T19:10:19.519Z,102713.56
2018-01-13T19:12:47.484Z,102722.55
2018-01-13T19:15:15.077Z,102724.65
2018-01-13T19:17:42.709Z,102722.34
2018-01-13T19:20:10.389Z,102722.58
2018-01-13T19:22:37.989Z,102724.09
2018-01-13T19:25:05.629Z,102732.84
2018-01-13T19:27:33.220Z,102752.72
2018-01-13T19:30:01.242Z,102729.72
2018-01-13T19:32:29.019Z,102733.02
2018-01-13T19:34:56.641Z,102733.97
2018-01-13T19:37:24.281Z,102737.55
2018-01-13T19:39:51.936Z,102731.27
2018-01-13T19:42:19.650Z,102726.30
2018-01-13T19:44:47.398Z,102728.60
2018-01-13T19:47:15.005Z,102722.42
2018-01-13T19:49:43.041Z,102724.88
2018-01-13T19:52:10.660Z,102722.55
2018-01-13T19:54:38.266Z,102726.85
2018-01-13T19:57:05.900Z,102709.19
2018-01-13T19:59:34.228Z,102716.16
2018-01-13T20:02:01.926Z,102713.03
2018-01-13T20:04:29.882Z,102707.61
2018-01-13T20:06:57.516Z,102707.64
2018-01-13T20:09:25.165Z,102707.59
2018-01-13T20:11:52.752Z,102704.19
2018-01-13T20:14:20.394Z,102708.60
2018-01-13T20:16:47.993Z,102709.36
2018-01-13T20:19:15.651Z,102713.02
2018-01-13T20:21:43.291Z,102708.24
2018-01-13T20:24:10.948Z,102698.13
2018-01-13T20:26:38.915Z,102704.68
2018-01-13T20:29:06.538Z,102700.34
2018-01-13T20:31:34.460Z,102703.80
2018-01-13T20:34:02.131Z,102692.31
2018-01-13T20:36:29.770Z,102684.69
2018-01-13T20:38:57.732Z,102687.13
2018-01-13T20:41:25.345Z,102686.77
2018-01-13T20:43:52.963Z,102689.69
2018-01-13T20:46:20.593Z,102692.45
2018-01-13T20:48:48.215Z,102693.83
2018-01-13T20:51:15.885Z,102687.65
2018-01-13T20:53:43.661Z,102681.50
2018-01-13T20:56:11.324Z,102680.31
2018-01-13T20:58:39.715Z,102663.77
2018-01-13T21:01:07.380Z,102667.13
2018-01-13T21:06:02.543Z,102652.25
2018-01-13T21:08:30.179Z,102659.02
2018-01-13T21:10:58.177Z,102643.20
2018-01-13T21:13:26.047Z,102638.16
2018-01-13T21:15:53.702Z,102630.37
2018-01-13T21:18:21.368Z,102637.08
2018-01-13T21:20:49.085Z,102628.55
2018-01-13T21:23:16.737Z,102626.09
2018-01-13T21:25:44.794Z,102622.67
2018-01-13T21:28:12.505Z,102622.42
2018-01-13T21:30:40.125Z,102622.06
2018-01-13T21:33:07.758Z,102627.50
2018-01-13T21:35:35.408Z,102618.62
2018-01-13T21:38:03.291Z,102628.90
2018-01-13T21:40:31.001Z,102620.34
2018-01-13T21:42:58.699Z,102624.05
2018-01-13T21:45:26.331Z,102626.37
2018-01-13T21:47:54.035Z,102628.48
2018-01-13T21:50:21.695Z,102627.80
2018-01-13T21:52:49.344Z,102631.64
2018-01-13T21:55:16.970Z,102630.25
2018-01-13T21:57:46.093Z,102634.49
2018-01-13T22:00:13.926Z,102632.22
2018-01-13T22:02:41.520Z,102630.55
2018-01-13T22:05:09.160Z,102637.05
2018-01-13T22:07:39.981Z,102626.20
2018-01-13T22:10:07.935Z,102628.58
2018-01-13T22:12:35.571Z,102626.12
2018-01-13T22:15:03.168Z,102618.02
2018-01-13T22:17:30.831Z,102616.61
2018-01-13T22:19:58.681Z,102615.14
2018-01-13T22:22:26.373Z,102617.84
2018-01-13T22:24:54.048Z,102611.55
2018-01-13T22:27:22.474Z,102612.89
2018-01-13T22:29:50.995Z,102614.84
2018-01-13T22:32:18.864Z,102613.78
2018-01-13T22:34:46.495Z,102614.14
2018-01-13T22:37:14.120Z,102617.77
2018-01-13T22:39:41.714Z,102620.22
2018-01-13T22:42:09.355Z,102619.11
2018-01-13T22:44:37.354Z,102609.52
2018-01-13T22:47:05.007Z,102606.07
2018-01-13T22:49:32.627Z,102600.56
2018-01-13T22:52:00.232Z,102598.99
2018-01-13T22:54:27.869Z,102610.05
2018-01-13T22:56:55.504Z,102602.11
2018-01-13T22:59:23.441Z,102607.66
2018-01-13T23:01:51.428Z,102603.09
2018-01-13T23:04:19.025Z,102601.44
2018-01-13T23:06:47.622Z,102604.88
2018-01-13T23:09:15.257Z,102604.48
2018-01-13T23:11:42.872Z,102600.38
2018-01-13T23:14:10.478Z,102595.63
2018-01-13T23:16:38.113Z,102590.64
2018-01-13T23:19:05.768Z,102596.60
2018-01-13T23:21:33.379Z,102602.43
2018-01-13T23:24:02.112Z,102593.33
2018-01-13T23:26:29.762Z,102587.14
2018-01-13T23:28:57.352Z,102584.93
2018-01-13T23:31:25.605Z,102582.05
2018-01-13T23:33:53.218Z,102589.30
2018-01-13T23:36:20.895Z,102590.44
2018-01-13T23:38:48.505Z,102580.41
2018-01-13T23:41:16.644Z,102590.11
2018-01-13T23:43:44.451Z,102590.94
2018-01-13T23:46:12.129Z,102593.85
2018-01-13T23:48:39.759Z,102596.91
2018-01-13T23:51:09.974Z,102594.48
2018-01-13T23:53:37.726Z,102582.22
2018-01-13T23:56:05.462Z,102580.34
2018-01-13T23:58:33.064Z,102578.73
